createdAt,value
2023-05-12T00:01:14.282Z,2.92
2023-05-12T00:04:16.912Z,2.97
2023-05-12T00:07:20.995Z,3.42
2023-05-12T00:10:23.663Z,3.67
2023-05-12T00:13:26.951Z,3.25
2023-05-12T00:16:29.685Z,3.92
2023-05-12T00:19:32.359Z,3.60
2023-05-12T00:22:36.271Z,3.88
2023-05-12T00:25:38.939Z,4.03
2023-05-12T00:28:41.640Z,3.90
2023-05-12T00:31:44.277Z,3.97
2023-05-12T00:34:46.878Z,3.63
2023-05-12T00:37:50.762Z,3.57
2023-05-12T00:40:53.313Z,3.80
2023-05-12T00:43:56.127Z,3.80
2023-05-12T00:46:59.070Z,3.78
2023-05-12T00:50:01.644Z,3.85
2023-05-12T00:53:05.464Z,4.50
2023-05-12T00:56:08.323Z,4.80
2023-05-12T00:59:10.933Z,4.05
2023-05-12T01:02:13.496Z,4.57
2023-05-12T01:05:16.599Z,5.13
2023-05-12T01:08:21.055Z,5.22
2023-05-12T01:11:23.557Z,4.87
2023-05-12T01:14:26.984Z,5.70
2023-05-12T01:20:35.884Z,5.22
2023-05-12T01:23:44.244Z,4.93
2023-05-12T01:26:48.159Z,4.70
2023-05-12T01:29:51.200Z,4.97
2023-05-12T01:32:54.583Z,5.75
2023-05-12T01:35:57.107Z,5.30
2023-05-12T01:38:59.702Z,5.23
2023-05-12T01:42:03.949Z,5.63
2023-05-12T01:45:07.387Z,6.27
2023-05-12T01:51:12.818Z,5.37
2023-05-12T01:54:15.359Z,5.57
2023-05-12T01:57:19.176Z,5.37
2023-05-12T02:00:22.086Z,5.57
2023-05-12T02:03:24.952Z,5.60
2023-05-12T02:06:28.443Z,6.05
2023-05-12T02:09:31.097Z,5.22
2023-05-12T02:12:35.202Z,5.03
2023-05-12T02:15:37.706Z,5.60
2023-05-12T02:18:40.549Z,5.30
2023-05-12T02:21:46.015Z,5.82
2023-05-12T02:24:48.629Z,5.53
2023-05-12T02:27:52.495Z,5.35
2023-05-12T02:30:55.095Z,6.00
2023-05-12T02:33:58.787Z,6.00
2023-05-12T02:40:04.729Z,5.57
2023-05-12T02:46:11.247Z,5.65
2023-05-12T02:49:13.853Z,5.82
2023-05-12T02:52:16.533Z,5.90
2023-05-12T02:55:19.179Z,6.13
2023-05-12T02:58:23.288Z,5.85
2023-05-12T03:01:25.857Z,5.70
2023-05-12T03:04:28.432Z,5.80
2023-05-12T03:07:31.231Z,7.07
2023-05-12T03:10:34.045Z,6.22
2023-05-12T03:13:37.998Z,6.45
2023-05-12T03:16:40.641Z,6.90
2023-05-12T03:19:43.546Z,6.82
2023-05-12T03:22:46.189Z,6.80
2023-05-12T03:25:48.747Z,7.20
2023-05-12T03:28:52.633Z,6.83
2023-05-12T03:31:55.422Z,6.87
2023-05-12T03:34:58.335Z,6.50
2023-05-12T03:38:00.868Z,5.97
2023-05-12T03:41:06.823Z,6.67
2023-05-12T03:44:11.161Z,6.80
2023-05-12T03:47:13.953Z,6.43
2023-05-12T03:50:16.889Z,7.25
2023-05-12T03:53:19.446Z,6.88
2023-05-12T03:56:22.088Z,7.07
2023-05-12T03:59:25.986Z,7.27
2023-05-12T04:02:28.669Z,7.57
2023-05-12T04:05:31.313Z,7.63
2023-05-12T04:08:33.984Z,7.03
2023-05-12T04:11:36.891Z,7.10
2023-05-12T04:14:43.093Z,7.47
2023-05-12T04:17:46.238Z,8.03
2023-05-12T04:20:48.797Z,8.65
2023-05-12T04:23:52.411Z,8.87
2023-05-12T04:26:55.020Z,8.70
2023-05-12T04:29:58.933Z,8.98
2023-05-12T04:33:01.744Z,8.13
2023-05-12T04:36:05.687Z,8.45
2023-05-12T04:39:08.175Z,8.50
2023-05-12T04:42:10.714Z,8.70
2023-05-12T04:45:14.636Z,10.20
2023-05-12T04:48:17.227Z,8.90
2023-05-12T04:51:19.807Z,10.07
2023-05-12T04:54:23.607Z,9.63
2023-05-12T04:57:26.078Z,8.80
2023-05-12T05:00:29.919Z,9.03
2023-05-12T05:03:32.560Z,9.53
2023-05-12T05:06:35.125Z,9.80
2023-05-12T05:09:37.635Z,9.73
2023-05-12T05:12:40.149Z,9.13
2023-05-12T05:15:50.549Z,8.87
2023-05-12T05:18:53.212Z,9.63
2023-05-12T05:21:55.798Z,9.02
2023-05-12T05:24:58.506Z,8.87
2023-05-12T05:28:01.139Z,8.77
2023-05-12T05:31:05.449Z,8.90
2023-05-12T05:34:08.002Z,8.93
2023-05-12T05:37:10.700Z,8.68
2023-05-12T05:40:13.266Z,9.02
2023-05-12T05:43:15.852Z,8.57
2023-05-12T05:46:19.711Z,9.65
2023-05-12T05:49:23.061Z,8.73
2023-05-12T05:52:25.995Z,8.98
2023-05-12T05:55:28.545Z,8.90
2023-05-12T05:58:31.035Z,8.27
2023-05-12T06:01:34.890Z,8.07
2023-05-12T06:04:37.466Z,7.47
2023-05-12T06:07:39.979Z,8.00
2023-05-12T06:10:42.540Z,7.67
2023-05-12T06:13:45.089Z,7.47
2023-05-12T06:16:49.006Z,7.23
2023-05-12T06:19:51.525Z,8.00
2023-05-12T06:22:54.052Z,7.87
2023-05-12T06:25:56.626Z,8.10
2023-05-12T06:28:59.093Z,7.50
2023-05-12T06:32:03.161Z,7.50
2023-05-12T06:35:06.666Z,7.50
2023-05-12T06:41:11.587Z,6.60
2023-05-12T06:44:14.062Z,6.25
2023-05-12T06:47:17.950Z,6.50
2023-05-12T06:50:20.737Z,6.57
2023-05-12T06:53:25.513Z,7.15
2023-05-12T06:56:29.275Z,6.57
2023-05-12T06:59:31.810Z,6.40
2023-05-12T07:02:35.727Z,6.18
2023-05-12T07:05:38.248Z,5.97
2023-05-12T07:08:40.880Z,6.13
2023-05-12T07:11:43.471Z,6.25
2023-05-12T07:14:45.969Z,6.35
2023-05-12T07:17:49.935Z,6.43
2023-05-12T07:20:53.376Z,6.20
2023-05-12T07:26:58.240Z,5.30
2023-05-12T07:30:00.969Z,5.10
2023-05-12T07:33:04.959Z,5.53
2023-05-12T07:36:09.115Z,5.20
2023-05-12T07:39:12.865Z,4.97
2023-05-12T07:42:15.434Z,4.87
2023-05-12T07:45:22.880Z,5.97
2023-05-12T07:48:26.846Z,5.10
2023-05-12T07:51:29.513Z,4.20
2023-05-12T07:54:32.235Z,3.55
2023-05-12T07:57:34.843Z,3.60
2023-05-12T08:00:37.322Z,3.33
2023-05-12T08:03:41.359Z,3.90
2023-05-12T08:06:44.031Z,3.63
2023-05-12T08:09:46.899Z,4.30
2023-05-12T08:12:49.357Z,3.08
2023-05-12T08:15:52.158Z,3.08
2023-05-12T08:18:56.121Z,3.17
2023-05-12T08:21:58.835Z,3.30
2023-05-12T08:25:01.848Z,2.53
2023-05-12T08:28:04.693Z,3.30
2023-05-12T08:31:07.409Z,2.78
2023-05-12T08:34:11.477Z,3.28
2023-05-12T08:37:14.440Z,3.03
2023-05-12T08:40:21.356Z,2.65
2023-05-12T08:43:26.093Z,2.90
2023-05-12T08:46:28.605Z,2.23
2023-05-12T08:49:33.528Z,2.45
2023-05-12T08:52:36.668Z,2.40
2023-05-12T08:55:40.769Z,2.65
2023-05-12T08:58:44.750Z,2.70
2023-05-12T09:01:47.563Z,2.67
2023-05-12T09:04:51.891Z,2.45
2023-05-12T09:07:55.833Z,2.83
2023-05-12T09:10:59.334Z,2.73
2023-05-12T09:14:03.929Z,2.80
2023-05-12T09:17:06.544Z,2.60
2023-05-12T09:20:23.810Z,3.45
2023-05-12T09:23:33.217Z,3.10
2023-05-12T09:26:46.776Z,3.78
2023-05-12T09:29:58.999Z,3.20
2023-05-12T09:33:09.884Z,2.28
2023-05-12T09:36:18.092Z,2.40
2023-05-12T09:39:20.582Z,2.20
2023-05-12T09:42:24.451Z,3.72
2023-05-12T09:45:27.025Z,3.37
2023-05-12T09:48:31.129Z,3.00
2023-05-12T09:51:34.928Z,2.63
2023-05-12T09:54:40.644Z,2.80
2023-05-12T09:57:44.603Z,2.50
2023-05-12T10:03:54.585Z,2.37
2023-05-12T10:06:59.364Z,2.53
2023-05-12T10:10:04.301Z,2.40
2023-05-12T10:13:06.819Z,2.33
2023-05-12T10:16:09.588Z,1.58
2023-05-12T10:19:12.456Z,1.88
2023-05-12T10:22:17.122Z,1.70
2023-05-12T10:25:19.999Z,1.57
2023-05-12T10:28:22.822Z,1.70
2023-05-12T10:31:25.901Z,2.63
2023-05-12T10:34:31.258Z,1.42
2023-05-12T10:37:35.859Z,1.43
2023-05-12T10:40:38.467Z,1.93
2023-05-12T10:43:43.052Z,2.00
2023-05-12T10:46:45.674Z,1.93
2023-05-12T10:49:48.289Z,2.22
2023-05-12T10:52:55.485Z,2.47
2023-05-12T10:55:58.144Z,3.07
2023-05-12T10:59:17.431Z,2.25
2023-05-12T11:02:22.054Z,1.67
2023-05-12T11:05:34.832Z,2.10
2023-05-12T11:08:39.974Z,1.90
2023-05-12T11:11:45.737Z,2.10
2023-05-12T11:14:48.779Z,2.20
2023-05-12T11:17:51.883Z,1.48
2023-05-12T11:20:54.508Z,1.50
2023-05-12T11:23:58.653Z,1.80
2023-05-12T11:27:01.236Z,1.97
2023-05-12T11:30:04.448Z,1.80
2023-05-12T11:33:07.072Z,1.92
2023-05-12T11:36:11.009Z,2.00
2023-05-12T11:39:22.521Z,2.43
2023-05-12T11:42:25.948Z,2.33
2023-05-12T11:45:30.491Z,2.50
2023-05-12T11:48:34.806Z,1.70
2023-05-12T11:51:37.341Z,1.60
2023-05-12T11:54:41.327Z,2.00
2023-05-12T11:57:44.284Z,1.83
2023-05-12T12:00:47.028Z,1.77
2023-05-12T12:03:50.667Z,1.70
2023-05-12T12:06:53.262Z,2.07
2023-05-12T12:09:57.092Z,1.80
2023-05-12T12:13:00.897Z,1.57
2023-05-12T12:16:03.408Z,1.90
2023-05-12T12:19:06.062Z,1.70
2023-05-12T12:22:08.605Z,1.80
2023-05-12T12:25:12.546Z,1.95
2023-05-12T12:28:15.078Z,1.60
2023-05-12T12:31:17.957Z,1.90
2023-05-12T12:34:20.601Z,1.90
2023-05-12T12:37:23.096Z,1.60
2023-05-12T12:40:27.506Z,1.30
2023-05-12T12:43:30.125Z,0.90
2023-05-12T12:46:32.748Z,0.60
2023-05-12T12:49:35.426Z,0.70
2023-05-12T12:52:38.527Z,0.60
2023-05-12T12:58:45.077Z,0.93
2023-05-12T13:01:48.315Z,0.77
2023-05-12T13:04:50.931Z,1.00
2023-05-12T13:07:53.516Z,1.30
2023-05-12T13:10:57.379Z,1.25
2023-05-12T13:14:02.171Z,1.53
2023-05-12T13:17:05.134Z,1.43
2023-05-12T13:20:09.086Z,1.30
2023-05-12T13:23:11.875Z,1.50
2023-05-12T13:26:15.894Z,1.52
2023-05-12T13:29:18.493Z,1.63
2023-05-12T13:32:21.729Z,1.70
2023-05-12T13:38:27.283Z,1.63
2023-05-12T13:41:31.129Z,1.60
2023-05-12T13:44:33.639Z,1.70
2023-05-12T13:47:36.172Z,1.70
2023-05-12T13:50:38.760Z,1.60
2023-05-12T13:53:42.991Z,1.80
2023-05-12T13:56:47.210Z,2.53
2023-05-12T13:59:50.454Z,2.17
2023-05-12T14:05:55.539Z,2.77
2023-05-12T14:08:58.000Z,3.28
2023-05-12T14:12:02.512Z,2.92
2023-05-12T14:15:21.867Z,3.03
2023-05-12T14:18:28.503Z,3.55
2023-05-12T14:21:31.162Z,2.65
2023-05-12T14:24:33.664Z,2.95
2023-05-12T14:27:37.633Z,2.80
2023-05-12T14:30:40.222Z,2.73
2023-05-12T14:33:42.837Z,2.67
2023-05-12T14:36:45.451Z,2.80
2023-05-12T14:39:48.031Z,3.20
2023-05-12T14:42:52.487Z,2.70
2023-05-12T14:45:55.330Z,2.30
2023-05-12T14:48:57.878Z,2.78
2023-05-12T14:52:00.488Z,2.50
2023-05-12T14:55:02.975Z,2.50
2023-05-12T14:58:06.941Z,2.92
2023-05-12T15:01:09.755Z,2.30
2023-05-12T15:04:12.795Z,2.90
2023-05-12T15:07:15.317Z,2.70
2023-05-12T15:10:17.971Z,2.80
2023-05-12T15:13:22.837Z,2.92
2023-05-12T15:16:28.022Z,3.10
2023-05-12T15:19:30.752Z,2.60
2023-05-12T15:22:33.243Z,3.70
2023-05-12T15:25:36.024Z,2.38
2023-05-12T15:28:39.985Z,2.70
2023-05-12T15:31:42.686Z,2.77
2023-05-12T15:34:45.368Z,2.70
2023-05-12T15:37:47.831Z,2.97
2023-05-12T15:40:51.770Z,2.30
2023-05-12T15:43:55.684Z,2.40
2023-05-12T15:46:58.402Z,2.33
2023-05-12T15:50:01.382Z,3.45
2023-05-12T15:53:04.206Z,2.20
2023-05-12T15:56:07.781Z,2.53
2023-05-12T15:59:12.472Z,2.00
2023-05-12T16:02:15.226Z,1.80
2023-05-12T16:05:18.303Z,1.80
2023-05-12T16:08:21.869Z,2.40
2023-05-12T16:11:24.416Z,2.00
2023-05-12T16:14:28.230Z,1.80
2023-05-12T16:17:30.984Z,2.20
2023-05-12T16:20:33.671Z,1.80
2023-05-12T16:23:36.192Z,1.67
2023-05-12T16:26:39.073Z,1.85
2023-05-12T16:29:45.332Z,1.65
2023-05-12T16:32:48.015Z,1.90
2023-05-12T16:35:50.631Z,1.90
2023-05-12T16:38:53.607Z,1.90
2023-05-12T16:41:56.176Z,2.22
2023-05-12T16:45:00.288Z,2.53
2023-05-12T16:48:02.896Z,2.60
2023-05-12T16:51:07.003Z,2.13
2023-05-12T16:54:09.871Z,2.00
2023-05-12T16:57:12.340Z,2.10
2023-05-12T17:00:18.222Z,2.15
2023-05-12T17:03:20.939Z,1.73
2023-05-12T17:06:23.514Z,1.90
2023-05-12T17:09:26.077Z,1.70
2023-05-12T17:12:28.584Z,1.38
2023-05-12T17:15:32.540Z,1.75
2023-05-12T17:19:13.553Z,2.07
2023-05-12T17:21:57.645Z,2.00
2023-05-12T17:25:00.318Z,2.28
2023-05-12T17:28:02.996Z,2.00
2023-05-12T17:31:07.523Z,1.98
2023-05-12T17:34:10.283Z,2.20
2023-05-12T17:37:13.174Z,1.90
2023-05-12T17:40:16.967Z,2.08
2023-05-12T17:43:19.501Z,1.70
2023-05-12T17:46:23.491Z,2.47
2023-05-12T17:49:26.121Z,1.97
2023-05-12T17:52:28.738Z,2.08
2023-05-12T17:55:31.339Z,2.20
2023-05-12T17:58:34.139Z,1.85
2023-05-12T18:01:38.149Z,1.90
2023-05-12T18:04:40.825Z,1.83
2023-05-12T18:07:43.460Z,2.67
2023-05-12T18:10:46.611Z,3.10
2023-05-12T18:13:51.009Z,2.47
2023-05-12T18:16:55.050Z,1.90
2023-05-12T18:19:57.808Z,2.33
2023-05-12T18:23:00.326Z,2.75
2023-05-12T18:26:03.244Z,2.00
2023-05-12T18:29:05.962Z,2.13
2023-05-12T18:32:10.001Z,2.42
2023-05-12T18:35:12.527Z,2.07
2023-05-12T18:38:16.095Z,1.92
2023-05-12T18:41:18.856Z,2.00
2023-05-12T18:44:21.397Z,2.47
2023-05-12T18:47:25.449Z,2.08
2023-05-12T18:50:28.130Z,2.00
2023-05-12T18:53:30.923Z,1.85
2023-05-12T18:56:33.507Z,1.88
2023-05-12T18:59:36.005Z,1.30
2023-05-12T19:02:42.233Z,1.70
2023-05-12T19:05:46.321Z,1.80
2023-05-12T19:08:49.064Z,1.63
2023-05-12T19:11:51.541Z,1.50
2023-05-12T19:14:54.196Z,1.30
2023-05-12T19:17:58.124Z,1.83
2023-05-12T19:21:00.730Z,1.50
2023-05-12T19:24:03.312Z,1.70
2023-05-12T19:27:06.292Z,1.40
2023-05-12T19:30:09.717Z,1.58
2023-05-12T19:36:18.441Z,1.80
2023-05-12T19:39:20.968Z,1.10
2023-05-12T19:42:23.590Z,1.80
2023-05-12T19:45:26.169Z,1.40
2023-05-12T19:48:30.068Z,1.08
2023-05-12T19:51:32.915Z,1.43
2023-05-12T19:54:35.726Z,1.10
2023-05-12T19:57:38.386Z,1.48
2023-05-12T20:00:41.381Z,1.50
2023-05-12T20:03:45.546Z,1.45
2023-05-12T20:06:48.082Z,1.40
2023-05-12T20:09:50.596Z,1.50
2023-05-12T20:12:53.140Z,1.13
2023-05-12T20:15:56.062Z,1.30
2023-05-12T20:19:02.503Z,1.13
2023-05-12T20:22:06.214Z,1.47
2023-05-12T20:25:14.295Z,1.20
2023-05-12T20:28:16.827Z,1.40
2023-05-12T20:31:19.968Z,1.00
2023-05-12T20:34:24.038Z,1.10
2023-05-12T20:37:27.349Z,1.23
2023-05-12T20:40:29.902Z,1.20
2023-05-12T20:43:32.425Z,1.23
2023-05-12T20:46:37.911Z,1.30
2023-05-12T20:49:42.766Z,2.07
2023-05-12T20:52:46.190Z,1.20
2023-05-12T20:58:51.301Z,1.40
2023-05-12T21:01:54.448Z,1.02
2023-05-12T21:04:58.429Z,1.30
2023-05-12T21:08:01.082Z,1.43
2023-05-12T21:11:03.592Z,1.33
2023-05-12T21:14:06.175Z,1.17
2023-05-12T21:17:09.972Z,1.60
2023-05-12T21:20:14.229Z,1.20
2023-05-12T21:23:16.788Z,1.13
2023-05-12T21:26:19.315Z,1.63
2023-05-12T21:29:21.938Z,1.33
2023-05-12T21:32:24.656Z,1.17
2023-05-12T21:35:28.873Z,1.40
2023-05-12T21:38:31.919Z,1.20
2023-05-12T21:41:34.484Z,1.90
2023-05-12T21:44:36.914Z,1.43
2023-05-12T21:47:39.578Z,1.40
2023-05-12T21:50:43.950Z,1.70
2023-05-12T21:53:46.433Z,1.70
2023-05-12T21:56:49.057Z,1.80
2023-05-12T21:59:51.959Z,1.50
2023-05-12T22:02:54.462Z,1.80
2023-05-12T22:05:58.323Z,1.60
2023-05-12T22:09:00.922Z,1.63
2023-05-12T22:12:03.543Z,1.50
2023-05-12T22:15:06.873Z,2.10
2023-05-12T22:18:09.514Z,2.00
2023-05-12T22:21:13.678Z,1.80
2023-05-12T22:24:16.154Z,1.63
2023-05-12T22:27:21.993Z,2.07
2023-05-12T22:30:24.733Z,1.90
2023-05-12T22:33:27.434Z,2.08
2023-05-12T22:36:31.298Z,2.10
2023-05-12T22:39:33.811Z,2.60
2023-05-12T22:42:36.514Z,1.90
2023-05-12T22:45:39.088Z,2.00
2023-05-12T22:48:41.941Z,2.17
2023-05-12T22:51:45.946Z,2.20
2023-05-12T22:54:48.474Z,1.87
2023-05-12T22:57:51.252Z,2.13
2023-05-12T23:00:54.110Z,1.80
2023-05-12T23:03:56.773Z,1.75
2023-05-12T23:07:00.692Z,2.05
2023-05-12T23:10:03.212Z,1.70
2023-05-12T23:13:05.749Z,1.87
2023-05-12T23:16:08.822Z,2.10
2023-05-12T23:19:11.451Z,2.25
2023-05-12T23:22:15.434Z,1.85
2023-05-12T23:25:17.953Z,1.67
2023-05-12T23:28:20.509Z,1.80
2023-05-12T23:31:23.053Z,2.10
2023-05-12T23:34:25.611Z,2.00
2023-05-12T23:37:29.459Z,2.27
2023-05-12T23:40:33.381Z,2.10
2023-05-12T23:43:36.016Z,2.40
2023-05-12T23:46:38.574Z,2.17
2023-05-12T23:49:41.230Z,1.92
2023-05-12T23:52:45.275Z,2.13
2023-05-12T23:55:47.766Z,2.40
2023-05-12T23:58:50.281Z,2.10
